Time;durP1;ratioP1;P1;durP2;ratioP2;P2;SDS_P1;SDS_P2;PMS_P1;PMS_P2;Temp;Humidity;BMP_temperature;BMP_pressure;BME280_temperature;BME280_humidity;BME280_pressure;Samples;Min_cycle;Max_cycle;Signal;HPM_P1;HPM_P2
2022/06/16 00:00:47;;;;;;;2.40;2.20;;;23.00;91.00;;;;;;6240221;28;89120;-67
2022/06/16 00:03:50;;;;;;;2.75;2.42;;;23.00;91.00;;;;;;6218913;28;88717;-67
2022/06/16 00:06:53;;;;;;;2.60;2.40;;;23.00;91.00;;;;;;6211774;28;90096;-67
2022/06/16 00:09:55;;;;;;;2.63;2.42;;;23.00;91.00;;;;;;6220622;28;89066;-67
2022/06/16 00:12:57;;;;;;;2.40;2.20;;;23.00;91.00;;;;;;6220758;28;89141;-67
2022/06/16 00:16:00;;;;;;;2.58;2.38;;;23.00;91.30;;;;;;6207961;28;88962;-66
2022/06/16 00:19:03;;;;;;;2.45;2.25;;;23.00;91.00;;;;;;6230270;28;89457;-67
2022/06/16 00:22:06;;;;;;;2.58;2.28;;;23.00;90.90;;;;;;6216357;28;89002;-67
2022/06/16 00:25:09;;;;;;;2.50;2.30;;;23.00;90.90;;;;;;6211733;28;89048;-67
2022/06/16 00:28:12;;;;;;;2.45;2.25;;;23.00;90.90;;;;;;6227011;28;88722;-67
2022/06/16 00:31:15;;;;;;;4.28;3.03;;;23.00;90.90;;;;;;6223950;28;89080;-67
2022/06/16 00:34:19;;;;;;;2.72;2.42;;;23.00;91.00;;;;;;6221064;28;89341;-67
2022/06/16 00:37:21;;;;;;;2.67;2.47;;;23.00;91.00;;;;;;6226275;28;89927;-66
2022/06/16 00:40:23;;;;;;;2.40;2.20;;;23.00;91.00;;;;;;6210565;28;89401;-67
2022/06/16 00:43:25;;;;;;;2.58;2.38;;;23.00;90.90;;;;;;6241960;27;89042;-66
2022/06/16 00:46:29;;;;;;;2.47;2.28;;;23.00;90.90;;;;;;6230775;28;89213;-66
2022/06/16 00:49:33;;;;;;;2.67;2.40;;;23.00;90.90;;;;;;6210928;28;89015;-66
2022/06/16 00:52:35;;;;;;;2.80;2.40;;;23.00;91.00;;;;;;6212948;28;89185;-67
2022/06/16 00:55:37;;;;;;;2.50;2.30;;;23.00;91.00;;;;;;6217498;28;89593;-67
2022/06/16 00:58:43;;;;;;;2.60;2.40;;;23.00;91.00;;;;;;6226163;28;88508;-67
2022/06/16 01:01:46;;;;;;;2.80;2.60;;;23.00;91.00;;;;;;6221016;28;89210;-66
2022/06/16 01:04:51;;;;;;;2.80;2.47;;;23.00;90.90;;;;;;6222274;28;89095;-66
2022/06/16 01:07:55;;;;;;;2.92;2.63;;;23.00;90.80;;;;;;6217439;28;89057;-65
2022/06/16 01:11:07;;;;;;;3.30;3.00;;;23.00;90.90;;;;;;6218702;28;89077;-65
2022/06/16 01:14:21;;;;;;;3.10;2.70;;;23.00;90.90;;;;;;6220149;28;89062;-65
2022/06/16 01:17:32;;;;;;;3.03;2.72;;;23.00;90.90;;;;;;6213690;28;88970;-66
2022/06/16 01:20:47;;;;;;;2.85;2.65;;;23.00;90.90;;;;;;6230675;28;89113;-66
2022/06/16 01:24:26;;;;;;;2.78;2.58;;;23.00;90.90;;;;;;6223632;28;89128;-66
2022/06/16 01:27:50;;;;;;;2.88;2.63;;;23.00;90.80;;;;;;6217163;28;89073;-66
2022/06/16 01:31:00;;;;;;;3.55;3.25;;;23.00;90.90;;;;;;6209090;28;88239;-66
2022/06/16 01:34:08;;;;;;;2.70;2.50;;;23.00;91.00;;;;;;6220926;28;89030;-66
2022/06/16 01:37:16;;;;;;;3.20;2.90;;;23.00;90.90;;;;;;6217797;28;89062;-66
2022/06/16 01:40:23;;;;;;;3.42;3.13;;;23.00;90.90;;;;;;6216746;28;90006;-66
2022/06/16 01:43:29;;;;;;;4.07;3.58;;;23.00;91.00;;;;;;6223370;27;89130;-65
2022/06/16 01:46:35;;;;;;;3.53;3.22;;;23.00;91.00;;;;;;6210467;28;87969;-65
2022/06/16 01:49:42;;;;;;;3.72;3.42;;;23.00;90.90;;;;;;6223108;28;89409;-65
2022/06/16 01:52:50;;;;;;;3.30;3.00;;;23.00;90.90;;;;;;6227621;28;89175;-68
2022/06/16 01:55:57;;;;;;;3.50;3.20;;;23.00;90.90;;;;;;6214901;28;90098;-65
2022/06/16 01:59:02;;;;;;;3.60;3.30;;;23.00;90.90;;;;;;6219178;28;89558;-66
2022/06/16 02:02:09;;;;;;;3.70;3.33;;;23.00;90.90;;;;;;6212756;28;88391;-65
2022/06/16 02:05:16;;;;;;;3.50;3.20;;;23.00;90.90;;;;;;6229110;28;89145;-66
2022/06/16 02:08:23;;;;;;;3.80;3.50;;;23.00;90.90;;;;;;6211676;28;88978;-65
2022/06/16 02:11:29;;;;;;;3.88;3.50;;;23.00;91.00;;;;;;6222862;28;88982;-66
2022/06/16 02:14:35;;;;;;;4.00;3.70;;;23.00;91.00;;;;;;6225705;28;89282;-66
2022/06/16 02:17:39;;;;;;;4.18;3.78;;;23.00;91.00;;;;;;6220513;28;89091;-65
2022/06/16 02:20:52;;;;;;;3.55;3.25;;;23.00;91.00;;;;;;6214696;28;89024;-66
2022/06/16 02:23:54;;;;;;;4.85;4.35;;;23.00;91.00;;;;;;6217843;28;87940;-65
2022/06/16 02:26:58;;;;;;;4.90;4.40;;;23.00;91.00;;;;;;6218090;28;89365;-66
2022/06/16 02:30:00;;;;;;;5.10;4.70;;;23.00;91.00;;;;;;6215481;28;89016;-66
2022/06/16 02:33:09;;;;;;;5.10;4.63;;;23.00;91.00;;;;;;6211031;28;88347;-66
2022/06/16 02:36:24;;;;;;;4.57;4.18;;;23.00;91.00;;;;;;6230360;28;89133;-66
2022/06/16 02:39:43;;;;;;;4.72;4.32;;;23.00;90.90;;;;;;6220456;28;88008;-66
2022/06/16 02:42:55;;;;;;;5.05;4.55;;;23.00;90.90;;;;;;6232134;28;89954;-66
2022/06/16 02:46:03;;;;;;;4.32;3.92;;;23.00;90.90;;;;;;6209422;28;89412;-65
2022/06/16 02:49:17;;;;;;;5.45;4.95;;;23.00;90.90;;;;;;6232375;28;88950;-66
2022/06/16 02:52:28;;;;;;;5.20;4.70;;;23.00;90.90;;;;;;6209893;28;89086;-66
2022/06/16 02:55:36;;;;;;;4.90;4.40;;;23.00;91.00;;;;;;6221486;28;89853;-65
2022/06/16 02:58:41;;;;;;;5.32;4.82;;;23.00;90.90;;;;;;6233899;28;90825;-65
2022/06/16 03:01:43;;;;;;;5.75;5.25;;;23.00;91.00;;;;;;6210134;28;89197;-65
2022/06/16 03:04:49;;;;;;;5.60;5.10;;;23.00;91.00;;;;;;6217118;28;88343;-65
2022/06/16 03:07:51;;;;;;;5.90;5.38;;;22.90;90.90;;;;;;6232231;28;89922;-65
2022/06/16 03:10:54;;;;;;;6.07;5.47;;;23.00;91.00;;;;;;6233122;28;88068;-66
2022/06/16 03:13:56;;;;;;;6.68;6.07;;;23.00;91.00;;;;;;6241792;27;90264;-65
2022/06/16 03:16:59;;;;;;;6.93;6.25;;;23.00;91.00;;;;;;6220109;28;89063;-65
2022/06/16 03:20:02;;;;;;;6.00;5.40;;;23.00;91.00;;;;;;6231918;28;89041;-66
2022/06/16 03:23:04;;;;;;;6.30;5.70;;;23.00;91.00;;;;;;6213853;28;88746;-65
2022/06/16 03:26:06;;;;;;;7.05;6.05;;;23.00;91.00;;;;;;6222548;28;89420;-66
2022/06/16 03:29:09;;;;;;;6.25;5.70;;;23.00;91.00;;;;;;6222222;28;89088;-65
2022/06/16 03:32:11;;;;;;;6.43;5.82;;;23.00;91.00;;;;;;6212591;28;88971;-66
2022/06/16 03:35:15;;;;;;;6.70;6.10;;;23.00;90.90;;;;;;6223341;28;88896;-65
2022/06/16 03:38:21;;;;;;;6.88;6.10;;;23.00;90.90;;;;;;6218553;28;89084;-65
2022/06/16 03:41:23;;;;;;;6.50;5.90;;;23.00;90.90;;;;;;6222653;28;89167;-66
2022/06/16 03:44:25;;;;;;;6.82;6.22;;;23.00;90.90;;;;;;6207743;28;90021;-65
2022/06/16 03:47:27;;;;;;;7.15;6.45;;;23.00;90.90;;;;;;6207689;28;89105;-65
2022/06/16 03:50:31;;;;;;;6.05;5.55;;;23.00;90.90;;;;;;6216681;28;88387;-65
2022/06/16 03:53:33;;;;;;;7.32;6.68;;;23.00;90.90;;;;;;6226350;28;89436;-65
2022/06/16 03:56:35;;;;;;;6.95;6.35;;;23.00;91.00;;;;;;6208258;28;88014;-65
2022/06/16 03:59:37;;;;;;;7.55;6.85;;;22.90;91.00;;;;;;6224646;28;87951;-65
2022/06/16 04:02:38;;;;;;;9.27;8.38;;;23.00;91.00;;;;;;6230599;28;89037;-65
2022/06/16 04:05:42;;;;;;;8.25;7.45;;;23.00;91.00;;;;;;6221252;28;87540;-66
2022/06/16 04:08:44;;;;;;;7.80;7.10;;;23.00;91.10;;;;;;6221189;28;89057;-65
2022/06/16 04:11:46;;;;;;;8.85;8.05;;;22.90;91.00;;;;;;6218181;28;90179;-66
2022/06/16 04:14:48;;;;;;;8.07;7.35;;;23.00;91.00;;;;;;6218329;28;90151;-65
2022/06/16 04:17:50;;;;;;;8.48;7.68;;;23.00;91.00;;;;;;6208879;28;89361;-65
2022/06/16 04:20:53;;;;;;;8.07;7.38;;;23.00;91.10;;;;;;6227574;28;92539;-68
2022/06/16 04:23:56;;;;;;;8.45;7.65;;;23.00;91.10;;;;;;6220252;28;89129;-65
2022/06/16 04:26:58;;;;;;;8.70;7.90;;;23.00;91.10;;;;;;6219978;28;89505;-66
2022/06/16 04:30:00;;;;;;;8.70;7.90;;;23.00;91.00;;;;;;6219472;28;89033;-65
2022/06/16 04:33:02;;;;;;;8.73;7.93;;;23.00;91.00;;;;;;6228913;28;89437;-65
2022/06/16 04:36:06;;;;;;;8.57;7.78;;;23.00;91.00;;;;;;6211987;28;88340;-65
2022/06/16 04:39:08;;;;;;;9.35;8.45;;;23.00;91.00;;;;;;6207355;28;89447;-65
2022/06/16 04:42:10;;;;;;;8.50;7.68;;;23.00;91.00;;;;;;6219368;28;89140;-66
2022/06/16 04:45:13;;;;;;;8.98;8.18;;;23.00;91.00;;;;;;6219337;28;90040;-65
2022/06/16 04:48:15;;;;;;;8.93;8.13;;;23.00;91.00;;;;;;6226763;28;89045;-65
2022/06/16 04:51:18;;;;;;;9.00;8.20;;;23.00;91.00;;;;;;6207784;28;89111;-65
2022/06/16 04:54:20;;;;;;;8.73;7.93;;;23.00;91.00;;;;;;6216929;28;89122;-65
2022/06/16 04:57:23;;;;;;;9.82;8.93;;;23.00;91.00;;;;;;6209665;28;89231;-65
2022/06/16 05:00:25;;;;;;;9.63;8.73;;;23.00;90.90;;;;;;6206587;28;88995;-65
2022/06/16 05:03:28;;;;;;;9.85;8.95;;;23.00;90.90;;;;;;6212030;28;89088;-65
2022/06/16 05:06:32;;;;;;;9.90;9.00;;;23.00;90.90;;;;;;6215920;28;88317;-65
2022/06/16 05:09:34;;;;;;;10.10;9.20;;;23.00;90.90;;;;;;6219724;28;89179;-65
2022/06/16 05:12:36;;;;;;;9.77;8.85;;;23.00;90.90;;;;;;6220986;28;89013;-65
2022/06/16 05:15:38;;;;;;;10.07;9.07;;;23.00;90.90;;;;;;6206105;28;90088;-65
2022/06/16 05:18:40;;;;;;;9.82;8.93;;;23.00;90.90;;;;;;6225274;28;89027;-65
2022/06/16 05:21:44;;;;;;;10.10;9.10;;;23.00;90.90;;;;;;6233440;28;88010;-66
2022/06/16 05:24:46;;;;;;;10.18;9.27;;;23.00;90.90;;;;;;6214125;28;89051;-66
2022/06/16 05:27:48;;;;;;;10.02;9.02;;;23.00;90.90;;;;;;6209738;28;89414;-65
2022/06/16 05:30:50;;;;;;;10.38;9.38;;;23.00;91.00;;;;;;6230536;28;88943;-65
2022/06/16 05:33:52;;;;;;;9.80;8.88;;;23.00;91.00;;;;;;6231335;28;89055;-65
2022/06/16 05:36:55;;;;;;;9.55;8.65;;;23.00;91.00;;;;;;6218397;28;88635;-65
2022/06/16 05:39:57;;;;;;;10.15;9.23;;;23.10;91.00;;;;;;6213146;28;89132;-65
2022/06/16 05:42:59;;;;;;;10.27;9.38;;;23.00;91.00;;;;;;6208821;28;89423;-65
2022/06/16 05:46:02;;;;;;;10.40;9.40;;;23.10;91.00;;;;;;6227539;28;90102;-65
2022/06/16 05:49:04;;;;;;;10.07;9.18;;;23.10;91.10;;;;;;6218652;28;89007;-65
2022/06/16 05:52:10;;;;;;;9.45;8.60;;;23.10;91.10;;;;;;6219419;28;89369;-65
2022/06/16 05:55:13;;;;;;;9.68;8.77;;;23.10;91.40;;;;;;6241511;28;88372;-66
2022/06/16 05:58:17;;;;;;;10.35;9.45;;;23.10;91.00;;;;;;6217087;28;89140;-66
2022/06/16 06:01:19;;;;;;;10.70;9.70;;;23.10;91.00;;;;;;6209982;28;89160;-65
2022/06/16 06:04:21;;;;;;;10.15;9.15;;;23.10;91.10;;;;;;6218336;28;89385;-66
2022/06/16 06:07:24;;;;;;;10.10;9.20;;;23.10;91.10;;;;;;6219057;28;88379;-65
2022/06/16 06:17:06;;;;;;;10.27;9.32;;;23.10;91.20;;;;;;6225702;28;88321;-65
2022/06/16 06:20:09;;;;;;;10.27;9.32;;;23.10;91.20;;;;;;6220831;28;89081;-66
2022/06/16 06:23:12;;;;;;;10.20;9.30;;;23.10;91.20;;;;;;6224532;28;89068;-65
2022/06/16 06:26:14;;;;;;;9.93;9.02;;;23.10;91.20;;;;;;6217433;28;89078;-66
2022/06/16 06:29:17;;;;;;;9.90;9.00;;;23.10;91.20;;;;;;6222977;28;89028;-65
2022/06/16 06:32:21;;;;;;;10.45;9.45;;;23.10;91.20;;;;;;6209248;28;87974;-66
2022/06/16 06:35:23;;;;;;;10.07;9.07;;;23.10;91.20;;;;;;6220627;28;89094;-65
2022/06/16 06:38:26;;;;;;;10.48;9.48;;;23.10;91.20;;;;;;6209904;28;88754;-66
2022/06/16 06:41:28;;;;;;;10.18;9.27;;;23.10;91.20;;;;;;6230989;28;89131;-65
2022/06/16 06:44:31;;;;;;;10.57;9.57;;;23.10;91.20;;;;;;6214032;28;89308;-65
2022/06/16 06:47:33;;;;;;;10.45;9.48;;;23.10;91.20;;;;;;6217945;28;90005;-65
2022/06/16 06:50:38;;;;;;;10.45;9.45;;;23.10;91.30;;;;;;6230231;27;89135;-65
2022/06/16 06:53:41;;;;;;;10.10;9.10;;;23.10;91.30;;;;;;6210675;28;89117;-66
2022/06/16 06:56:43;;;;;;;10.70;9.70;;;23.10;91.30;;;;;;6211693;28;87999;-65
2022/06/16 06:59:45;;;;;;;10.48;9.50;;;23.10;91.30;;;;;;6210416;28;89327;-65
2022/06/16 07:02:47;;;;;;;10.73;9.70;;;23.10;91.30;;;;;;6209227;28;89756;-64
2022/06/16 07:05:49;;;;;;;9.75;8.85;;;23.10;91.40;;;;;;6218311;28;89105;-65
2022/06/16 07:08:53;;;;;;;10.25;9.25;;;23.10;91.40;;;;;;6236879;28;88370;-65
2022/06/16 07:11:55;;;;;;;10.13;9.13;;;23.10;91.40;;;;;;6236213;27;89218;-65
2022/06/16 07:14:57;;;;;;;10.32;9.32;;;23.10;91.40;;;;;;6227365;28;89124;-65
2022/06/16 07:17:59;;;;;;;10.13;9.13;;;23.10;91.30;;;;;;6230341;28;90311;-65
2022/06/16 07:21:01;;;;;;;9.90;9.00;;;23.20;91.40;;;;;;6209257;28;89068;-65
2022/06/16 07:24:05;;;;;;;9.40;8.50;;;23.10;91.30;;;;;;6211349;28;87960;-66
2022/06/16 07:27:08;;;;;;;9.95;9.02;;;23.20;91.40;;;;;;6208541;28;88996;-65
2022/06/16 07:30:14;;;;;;;10.00;9.10;;;23.20;91.40;;;;;;6226224;28;89374;-65
2022/06/16 07:33:16;;;;;;;10.93;9.82;;;23.20;91.40;;;;;;6230920;28;89055;-65
2022/06/16 07:36:18;;;;;;;9.80;8.90;;;23.10;91.40;;;;;;6209405;28;89119;-65
2022/06/16 07:39:21;;;;;;;9.75;8.85;;;23.10;91.40;;;;;;6231584;28;88399;-65
2022/06/16 07:42:23;;;;;;;9.88;8.85;;;23.10;91.40;;;;;;6233399;27;89129;-66
2022/06/16 07:45:26;;;;;;;9.77;8.88;;;23.10;91.40;;;;;;6210049;28;89117;-65
2022/06/16 07:48:28;;;;;;;10.02;9.13;;;23.20;91.50;;;;;;6207548;28;90036;-65
2022/06/16 07:51:30;;;;;;;9.32;8.45;;;23.10;91.50;;;;;;6212786;28;89055;-65
2022/06/16 07:54:34;;;;;;;9.27;8.48;;;23.10;91.50;;;;;;6215549;28;89141;-66
2022/06/16 07:57:41;;;;;;;8.98;8.18;;;23.10;91.40;;;;;;6220211;28;89123;-65
2022/06/16 08:00:43;;;;;;;9.43;8.52;;;23.20;91.50;;;;;;6208762;28;89241;-66
2022/06/16 08:03:46;;;;;;;9.32;8.52;;;23.20;91.50;;;;;;6232869;28;89031;-65
2022/06/16 08:06:48;;;;;;;9.30;8.50;;;23.20;91.50;;;;;;6207003;28;89226;-65
2022/06/16 08:09:52;;;;;;;9.90;9.00;;;23.10;91.50;;;;;;6217478;28;88782;-65
2022/06/16 08:12:54;;;;;;;9.38;8.55;;;23.20;91.60;;;;;;6231210;28;89423;-65
2022/06/16 08:15:56;;;;;;;9.20;8.40;;;23.20;91.50;;;;;;6250109;28;89280;-65
2022/06/16 08:18:58;;;;;;;9.85;8.60;;;23.20;91.50;;;;;;6226636;28;90011;-66
2022/06/16 08:22:00;;;;;;;9.18;8.38;;;23.20;91.60;;;;;;6228081;28;89250;-66
2022/06/16 08:25:04;;;;;;;9.60;8.65;;;23.20;91.60;;;;;;6220500;28;89268;-66
2022/06/16 08:28:07;;;;;;;9.27;8.48;;;23.20;91.60;;;;;;6212805;28;89427;-65
2022/06/16 08:31:09;;;;;;;9.55;8.65;;;23.10;91.60;;;;;;6219789;28;89074;-66
2022/06/16 08:34:12;;;;;;;9.20;8.30;;;23.20;91.60;;;;;;6220214;28;89077;-66
2022/06/16 08:37:15;;;;;;;9.25;8.35;;;23.10;91.60;;;;;;6207567;28;89391;-65
2022/06/16 08:40:20;;;;;;;8.68;7.88;;;23.10;91.60;;;;;;6213576;28;88228;-65
2022/06/16 08:43:28;;;;;;;8.88;8.07;;;23.10;91.70;;;;;;6217893;28;89069;-65
2022/06/16 08:46:35;;;;;;;9.40;8.60;;;23.20;91.70;;;;;;6216404;28;89164;-65
2022/06/16 08:49:43;;;;;;;8.73;7.93;;;23.20;91.70;;;;;;6216770;28;90243;-66
2022/06/16 08:52:57;;;;;;;9.25;8.35;;;23.20;91.70;;;;;;6216176;28;90050;-65
2022/06/16 08:56:04;;;;;;;8.70;7.90;;;23.20;91.70;;;;;;6208912;28;89452;-66
2022/06/16 08:59:13;;;;;;;9.10;8.20;;;23.20;91.70;;;;;;6229082;28;87916;-65
2022/06/16 09:02:26;;;;;;;8.93;8.13;;;23.20;91.60;;;;;;6218850;28;89259;-65
2022/06/16 09:05:42;;;;;;;9.30;8.45;;;23.20;91.60;;;;;;6230494;28;89152;-66
2022/06/16 09:08:53;;;;;;;9.02;8.20;;;23.20;91.60;;;;;;6229372;28;89057;-66
2022/06/16 09:12:05;;;;;;;8.13;7.43;;;23.20;91.70;;;;;;6217986;28;88328;-66
2022/06/16 09:15:14;;;;;;;8.80;8.00;;;23.20;91.80;;;;;;6219037;28;89219;-65
2022/06/16 09:18:51;;;;;;;8.32;7.63;;;23.20;91.80;;;;;;6219788;28;89059;-66
2022/06/16 09:22:00;;;;;;;8.88;8.07;;;23.20;91.80;;;;;;6220827;28;90070;-66
2022/06/16 09:25:19;;;;;;;8.32;7.60;;;23.20;91.90;;;;;;6221116;27;89161;-66
2022/06/16 09:28:28;;;;;;;8.50;7.70;;;23.20;91.90;;;;;;6230487;28;89079;-65
2022/06/16 09:31:34;;;;;;;8.70;7.90;;;23.20;91.90;;;;;;6216186;28;89250;-66
2022/06/16 09:34:44;;;;;;;8.40;7.60;;;23.20;91.90;;;;;;6217671;28;89300;-66
2022/06/16 09:37:52;;;;;;;8.25;7.55;;;23.20;92.00;;;;;;6220049;28;89500;-65
2022/06/16 09:41:01;;;;;;;8.20;7.50;;;23.20;92.00;;;;;;6232351;28;87762;-65
2022/06/16 09:44:08;;;;;;;8.30;7.60;;;23.20;92.00;;;;;;6219533;28;88363;-66
2022/06/16 09:47:13;;;;;;;7.97;7.28;;;23.30;92.00;;;;;;6210133;28;89359;-66
2022/06/16 09:50:24;;;;;;;8.27;7.57;;;23.20;91.90;;;;;;6213497;28;89166;-65
2022/06/16 09:53:32;;;;;;;8.10;7.40;;;23.20;91.80;;;;;;6220712;28;90043;-66
2022/06/16 09:56:41;;;;;;;7.80;7.10;;;23.20;92.00;;;;;;6212831;28;89874;-65
2022/06/16 09:59:50;;;;;;;8.45;7.75;;;23.20;92.00;;;;;;6231027;28;89227;-66
2022/06/16 10:02:57;;;;;;;8.05;7.35;;;23.20;92.00;;;;;;6225432;28;89018;-66
2022/06/16 10:06:14;;;;;;;8.23;7.50;;;23.20;92.10;;;;;;6211752;28;88346;-66
2022/06/16 10:09:24;;;;;;;8.10;7.40;;;23.20;92.20;;;;;;6222471;28;89528;-66
2022/06/16 10:12:33;;;;;;;8.00;7.30;;;23.20;92.20;;;;;;6212342;28;89110;-66
2022/06/16 10:15:43;;;;;;;7.55;6.95;;;23.20;92.20;;;;;;6219527;28;88586;-65
2022/06/16 10:18:47;;;;;;;7.95;7.25;;;23.20;92.20;;;;;;6219866;28;89128;-66
2022/06/16 10:21:49;;;;;;;8.13;7.43;;;23.20;92.20;;;;;;6230685;28;89034;-66
2022/06/16 10:24:57;;;;;;;8.25;7.45;;;23.20;92.30;;;;;;6215508;28;90022;-66
2022/06/16 10:28:02;;;;;;;7.63;7.00;;;23.30;92.40;;;;;;6234323;28;89094;-66
2022/06/16 10:31:07;;;;;;;8.23;7.43;;;23.20;92.40;;;;;;6217456;28;89115;-66
2022/06/16 10:34:27;;;;;;;7.60;6.90;;;23.20;92.30;;;;;;6224613;28;88911;-67
2022/06/16 10:37:31;;;;;;;7.95;7.25;;;23.20;92.30;;;;;;6217476;28;88212;-66
2022/06/16 10:40:39;;;;;;;7.80;7.10;;;23.20;92.20;;;;;;6215425;28;89102;-66
2022/06/16 10:43:43;;;;;;;7.93;7.22;;;23.20;92.10;;;;;;6209140;28;89140;-66
2022/06/16 10:46:50;;;;;;;7.43;6.75;;;23.20;92.00;;;;;;6229018;28;88361;-66
2022/06/16 10:49:52;;;;;;;8.00;7.30;;;23.20;92.10;;;;;;6223349;28;89203;-66
2022/06/16 10:52:58;;;;;;;7.72;7.03;;;23.30;92.20;;;;;;6222495;28;87869;-66
2022/06/16 10:56:06;;;;;;;8.00;7.30;;;23.30;92.20;;;;;;6217046;28;90024;-66
2022/06/16 10:59:21;;;;;;;7.82;7.13;;;23.30;92.30;;;;;;6224233;28;89430;-66
2022/06/16 11:02:27;;;;;;;7.55;6.88;;;23.30;92.40;;;;;;6222608;28;87969;-66
2022/06/16 11:05:33;;;;;;;7.82;7.13;;;23.20;92.40;;;;;;6209918;28;89154;-66
2022/06/16 11:08:38;;;;;;;7.75;7.05;;;23.20;92.30;;;;;;6223274;28;89098;-66
2022/06/16 11:11:45;;;;;;;7.60;6.90;;;23.30;92.40;;;;;;6220001;28;88988;-66
2022/06/16 11:14:54;;;;;;;6.75;6.15;;;23.30;92.40;;;;;;6216308;28;89010;-66
2022/06/16 11:18:00;;;;;;;7.68;6.97;;;23.30;92.40;;;;;;6224017;28;88938;-66
2022/06/16 11:21:14;;;;;;;7.82;7.13;;;23.30;92.40;;;;;;6232908;28;89116;-67
2022/06/16 11:24:25;;;;;;;7.95;7.25;;;23.30;92.40;;;;;;6216021;28;88926;-67
2022/06/16 11:27:28;;;;;;;7.13;6.53;;;23.30;92.20;;;;;;6209130;28;89953;-67
2022/06/16 11:30:38;;;;;;;6.40;5.90;;;23.30;92.20;;;;;;6233100;28;89240;-67
2022/06/16 11:37:20;;;;;;;7.03;6.43;;;23.20;92.20;;;;;;6221514;28;87325;-67
2022/06/16 11:40:34;;;;;;;7.30;6.70;;;23.30;92.20;;;;;;6227913;28;89103;-66
2022/06/16 11:44:00;;;;;;;7.20;6.60;;;23.30;92.30;;;;;;6224614;28;89148;-66
2022/06/16 11:47:08;;;;;;;7.10;6.50;;;23.30;92.40;;;;;;6215764;28;89418;-66
2022/06/16 11:50:18;;;;;;;6.50;6.00;;;23.20;92.40;;;;;;6225034;28;88361;-66
2022/06/16 11:53:34;;;;;;;6.78;6.18;;;23.30;92.40;;;;;;6226126;28;89109;-67
2022/06/16 11:56:52;;;;;;;6.60;6.00;;;23.30;92.40;;;;;;6231676;28;87947;-66
2022/06/16 12:00:14;;;;;;;6.90;6.30;;;23.30;92.40;;;;;;6231023;28;89949;-67
2022/06/16 12:03:48;;;;;;;7.40;6.80;;;23.30;92.50;;;;;;6232405;28;89142;-66
2022/06/16 12:07:15;;;;;;;6.90;6.30;;;23.30;92.50;;;;;;6217678;28;90146;-66
2022/06/16 12:10:27;;;;;;;7.13;6.53;;;23.30;92.40;;;;;;6206744;28;88055;-67
2022/06/16 12:13:35;;;;;;;6.63;6.03;;;23.30;92.40;;;;;;6209172;28;89030;-67
2022/06/16 12:16:47;;;;;;;6.55;6.03;;;23.30;92.30;;;;;;6219856;28;89416;-66
2022/06/16 12:19:59;;;;;;;6.65;6.05;;;23.30;92.20;;;;;;6218133;28;90033;-67
2022/06/16 12:23:08;;;;;;;6.57;5.97;;;23.30;92.20;;;;;;6213288;28;88427;-67
2022/06/16 12:26:19;;;;;;;6.57;6.05;;;23.30;92.30;;;;;;6215148;28;89305;-67
2022/06/16 12:29:30;;;;;;;6.85;6.25;;;23.30;92.40;;;;;;6227972;28;89161;-67
2022/06/16 12:32:41;;;;;;;6.30;5.80;;;23.30;92.50;;;;;;6217259;28;90071;-66
2022/06/16 12:35:49;;;;;;;6.63;6.03;;;23.30;92.50;;;;;;6217863;28;89007;-66
2022/06/16 12:38:57;;;;;;;6.65;6.05;;;23.30;92.60;;;;;;6223702;28;89354;-67
2022/06/16 12:42:05;;;;;;;6.55;6.05;;;23.30;92.60;;;;;;6206695;28;89020;-67
2022/06/16 12:45:12;;;;;;;6.47;5.88;;;23.30;92.70;;;;;;6207817;28;89125;-67
2022/06/16 12:48:19;;;;;;;5.97;5.47;;;23.30;92.80;;;;;;6209623;28;89285;-66
2022/06/16 12:51:26;;;;;;;6.25;5.75;;;23.30;92.80;;;;;;6207204;28;88241;-66
2022/06/16 12:54:37;;;;;;;6.93;6.22;;;23.30;92.80;;;;;;6211752;28;88628;-66
2022/06/16 12:57:43;;;;;;;6.10;5.60;;;23.30;92.80;;;;;;6220662;28;89073;-67
2022/06/16 13:00:48;;;;;;;6.40;5.90;;;23.30;92.70;;;;;;6208720;28;89616;-67
2022/06/16 13:03:56;;;;;;;6.25;5.68;;;23.30;92.60;;;;;;6220084;28;90974;-67
2022/06/16 13:07:01;;;;;;;6.60;6.00;;;23.30;92.50;;;;;;6218969;28;89016;-66
2022/06/16 13:10:07;;;;;;;5.72;5.22;;;23.30;92.40;;;;;;6237810;28;90652;-66
2022/06/16 13:13:10;;;;;;;6.63;6.03;;;23.30;92.40;;;;;;6211792;27;89416;-67
2022/06/16 13:16:17;;;;;;;6.38;5.78;;;23.30;92.40;;;;;;6220534;28;89068;-66
2022/06/16 13:19:22;;;;;;;6.25;5.70;;;23.30;92.80;;;;;;6216031;27;89089;-66
2022/06/16 13:22:31;;;;;;;6.20;5.60;;;23.30;92.50;;;;;;6225273;28;89359;-66
2022/06/16 13:25:48;;;;;;;6.50;5.90;;;23.30;92.70;;;;;;6231754;28;89452;-66
2022/06/16 13:29:00;;;;;;;6.90;6.30;;;23.30;92.90;;;;;;6219056;28;88967;-66
2022/06/16 13:32:03;;;;;;;6.10;5.60;;;23.30;93.00;;;;;;6219661;28;88075;-67
2022/06/16 13:35:31;;;;;;;6.35;5.85;;;23.30;93.20;;;;;;6229464;28;90218;-66
2022/06/16 13:38:42;;;;;;;6.00;5.50;;;23.30;93.20;;;;;;6230600;28;89440;-66
2022/06/16 13:41:47;;;;;;;6.10;5.60;;;23.30;93.20;;;;;;6207344;28;89085;-66
2022/06/16 13:45:20;;;;;;;5.90;5.40;;;23.30;93.20;;;;;;6230749;28;91199;-66
2022/06/16 13:48:49;;;;;;;6.53;5.90;;;23.30;93.00;;;;;;6219007;28;89421;-66
2022/06/16 13:51:52;;;;;;;6.45;5.85;;;23.40;93.30;;;;;;6221197;28;87913;-67
2022/06/16 13:55:12;;;;;;;6.35;5.75;;;23.30;93.70;;;;;;6215875;28;89472;-66
2022/06/16 13:58:27;;;;;;;8.73;6.22;;;23.30;93.70;;;;;;6207527;28;88293;-67
2022/06/16 14:01:31;;;;;;;6.32;5.72;;;23.30;96.50;;;;;;6215938;28;89134;-66
2022/06/16 14:04:34;;;;;;;6.45;5.85;;;23.40;95.90;;;;;;6205597;28;89386;-66
2022/06/16 14:07:52;;;;;;;6.25;5.65;;;23.30;95.00;;;;;;6216936;28;90008;-67
2022/06/16 14:10:57;;;;;;;6.43;5.85;;;23.30;94.90;;;;;;6219474;28;89132;-67
2022/06/16 14:14:13;;;;;;;6.25;5.50;;;23.30;95.50;;;;;;6206696;28;89039;-66
2022/06/16 14:17:28;;;;;;;6.10;5.60;;;23.30;95.40;;;;;;6215896;28;89217;-66
2022/06/16 14:20:35;;;;;;;6.30;5.70;;;23.40;95.40;;;;;;6209748;28;89013;-67
2022/06/16 14:23:42;;;;;;;6.18;5.63;;;23.40;95.20;;;;;;6228880;28;89048;-66
2022/06/16 14:26:45;;;;;;;7.05;5.38;;;23.40;95.10;;;;;;6210135;28;89085;-67
2022/06/16 14:29:50;;;;;;;5.93;5.35;;;23.40;94.80;;;;;;6210478;28;89798;-67
2022/06/16 14:33:03;;;;;;;6.82;6.00;;;23.40;94.50;;;;;;6211946;28;89639;-67
2022/06/16 14:36:12;;;;;;;6.38;5.20;;;23.40;94.20;;;;;;6213956;28;89096;-67
2022/06/16 14:39:21;;;;;;;6.20;5.55;;;23.40;94.40;;;;;;6215339;28;90318;-67
2022/06/16 14:42:31;;;;;;;6.30;4.93;;;23.40;95.50;;;;;;6208760;28;89070;-67
2022/06/16 14:45:38;;;;;;;7.50;5.57;;;23.40;96.00;;;;;;6210614;28;89156;-67
2022/06/16 14:48:43;;;;;;;5.72;5.22;;;23.40;96.20;;;;;;6208020;28;89036;-66
2022/06/16 14:51:47;;;;;;;5.90;5.30;;;23.40;96.60;;;;;;6205271;28;89132;-67
2022/06/16 14:54:57;;;;;;;6.68;5.63;;;23.40;96.80;;;;;;6220179;28;89151;-66
2022/06/16 14:58:05;;;;;;;5.60;5.10;;;23.40;97.50;;;;;;6217421;28;89093;-67
2022/06/16 15:01:09;;;;;;;8.25;5.32;;;23.40;97.80;;;;;;6219129;28;88690;-67
2022/06/16 15:04:14;;;;;;;5.32;4.82;;;23.40;97.90;;;;;;6218283;28;89197;-67
2022/06/16 15:07:18;;;;;;;6.43;5.68;;;23.40;97.90;;;;;;6206529;28;89132;-67
2022/06/16 15:10:23;;;;;;;6.38;5.10;;;23.40;98.40;;;;;;6207797;28;89926;-67
2022/06/16 15:13:27;;;;;;;5.38;4.88;;;23.40;98.30;;;;;;6215388;28;89154;-67
2022/06/16 15:19:57;;;;;;;5.47;4.95;;;23.40;97.50;;;;;;6208947;28;87691;-67
2022/06/16 15:22:59;;;;;;;5.32;4.90;;;23.40;97.60;;;;;;6213133;28;88286;-66
2022/06/16 15:26:04;;;;;;;5.25;4.75;;;23.40;97.50;;;;;;6209679;28;90661;-67
2022/06/16 15:29:08;;;;;;;6.22;5.55;;;23.40;97.50;;;;;;6209104;28;89174;-66
2022/06/16 15:38:52;;;;;;;6.38;4.88;;;23.40;97.60;;;;;;6207871;28;87429;-66
2022/06/16 15:41:55;;;;;;;6.82;4.97;;;23.40;97.60;;;;;;6210667;28;90622;-66
2022/06/16 15:45:03;;;;;;;5.35;4.80;;;23.40;97.60;;;;;;6214000;28;89373;-67
2022/06/16 15:48:09;;;;;;;5.70;4.93;;;23.40;97.70;;;;;;6214465;28;89186;-66
2022/06/16 15:51:15;;;;;;;5.40;4.85;;;23.50;97.60;;;;;;6202214;28;89826;-66
2022/06/16 15:54:18;;;;;;;6.95;4.70;;;23.40;97.20;;;;;;6221119;28;88513;-67
2022/06/16 15:57:22;;;;;;;5.60;5.00;;;23.40;97.40;;;;;;6209257;28;89498;-67
2022/06/16 16:00:27;;;;;;;5.78;5.10;;;23.40;97.60;;;;;;6216404;28;88668;-66
2022/06/16 16:03:35;;;;;;;6.97;5.00;;;23.50;98.30;;;;;;6210291;28;88406;-65
2022/06/16 16:06:40;;;;;;;9.68;5.50;;;23.50;98.50;;;;;;6224410;28;89102;-67
2022/06/16 16:09:42;;;;;;;6.15;5.30;;;23.50;99.40;;;;;;6237752;28;89486;-67
2022/06/16 16:13:03;;;;;;;5.50;4.93;;;23.50;99.50;;;;;;6212992;28;89874;-66
2022/06/16 16:16:15;;;;;;;7.05;4.88;;;23.50;98.80;;;;;;6213157;28;89542;-67
2022/06/16 16:19:19;;;;;;;5.70;4.95;;;23.40;99.10;;;;;;6212642;28;89229;-67
2022/06/16 16:22:21;;;;;;;6.97;5.85;;;23.50;99.50;;;;;;6207828;28;88103;-67
2022/06/16 16:25:26;;;;;;;9.00;7.70;;;23.50;99.90;;;;;;6223488;28;89014;-66
2022/06/16 16:28:31;;;;;;;8.82;7.78;;;23.60;99.90;;;;;;6223058;28;89126;-67